Time;durP1;ratioP1;P1;durP2;ratioP2;P2;SDS_P1;SDS_P2;PMS_P1;PMS_P2;Temp;Humidity;BMP_temperature;BMP_pressure;BME280_temperature;BME280_humidity;BME280_pressure;Samples;Min_cycle;Max_cycle;Signal;HPM_P1;HPM_P2
2021/09/27 00:00:27;;;;;;;10.05;7.80;;;;;;;14.27;100.00;99236.89;2131302;84;21106;-81
2021/09/27 00:03:29;;;;;;;12.03;8.23;;;;;;;14.27;100.00;99228.99;2090103;84;21054;-81
2021/09/27 00:06:30;;;;;;;11.75;8.78;;;;;;;14.28;100.00;99234.56;2128223;84;20970;-81
2021/09/27 00:09:34;;;;;;;12.33;8.68;;;;;;;14.28;100.00;99224.03;2106124;85;21084;-81
2021/09/27 00:12:35;;;;;;;11.43;6.95;;;;;;;14.29;100.00;99233.56;2082003;85;21097;-81
2021/09/27 00:15:36;;;;;;;13.25;8.08;;;;;;;14.29;100.00;99230.42;2084300;85;20989;-81
2021/09/27 00:18:36;;;;;;;8.15;6.72;;;;;;;14.30;100.00;99229.92;2108999;84;20980;-81
2021/09/27 00:21:37;;;;;;;11.25;8.30;;;;;;;14.30;100.00;99229.92;2071604;86;21060;-81
2021/09/27 00:24:38;;;;;;;13.95;8.05;;;;;;;14.29;100.00;99238.33;2113094;84;21286;-81
2021/09/27 00:27:39;;;;;;;13.25;6.75;;;;;;;14.30;100.00;99237.81;2112999;84;21020;-81
2021/09/27 00:30:40;;;;;;;7.30;5.87;;;;;;;14.27;100.00;99232.94;2112971;84;21609;-81
2021/09/27 00:33:40;;;;;;;7.28;5.85;;;;;;;14.23;100.00;99224.09;2147398;83;21021;-81
2021/09/27 00:36:41;;;;;;;15.93;7.33;;;;;;;14.23;100.00;99224.09;2149135;83;21056;-81
2021/09/27 00:39:42;;;;;;;11.43;7.03;;;;;;;14.20;100.00;99220.52;2149302;83;21037;-81
2021/09/27 00:42:43;;;;;;;5.92;5.33;;;;;;;14.19;100.00;99225.98;2126416;83;21331;-81
2021/09/27 00:45:43;;;;;;;9.70;6.50;;;;;;;14.17;100.00;99223.55;2115023;83;21068;-81
2021/09/27 00:48:44;;;;;;;14.85;6.53;;;;;;;14.17;100.00;99226.18;2113061;84;21515;-82
2021/09/27 00:51:45;;;;;;;13.58;6.10;;;;;;;14.16;100.00;99219.26;2131142;84;21006;-81
2021/09/27 00:54:46;;;;;;;10.38;5.85;;;;;;;14.13;100.00;99224.10;2131359;84;21518;-81
2021/09/27 00:57:47;;;;;;;9.63;5.47;;;;;;;14.09;100.00;99217.59;2088546;84;21097;-81
2021/09/27 01:00:48;;;;;;;8.65;5.17;;;;;;;14.06;100.00;99224.03;2070093;86;21528;-81
2021/09/27 01:03:49;;;;;;;9.85;5.17;;;;;;;14.03;100.00;99224.42;2089791;85;21319;-81
2021/09/27 01:06:49;;;;;;;10.40;6.25;;;;;;;13.94;100.00;99214.52;2111629;84;21002;-81
2021/09/27 01:09:50;;;;;;;10.13;6.35;;;;;;;13.93;100.00;99226.56;2131092;84;20982;-80
2021/09/27 01:12:51;;;;;;;8.05;4.87;;;;;;;13.93;100.00;99231.83;2131206;83;21605;-80
2021/09/27 01:15:52;;;;;;;7.10;5.60;;;;;;;13.88;100.00;99223.16;2117229;83;20955;-82
2021/09/27 01:18:53;;;;;;;6.65;5.15;;;;;;;13.85;100.00;99225.38;2070142;86;21093;-81
2021/09/27 01:21:53;;;;;;;5.67;4.42;;;;;;;13.79;100.00;99223.48;2089804;85;21565;-81
2021/09/27 01:24:54;;;;;;;6.83;4.78;;;;;;;13.74;100.00;99228.51;2108766;84;20985;-81
2021/09/27 01:27:55;;;;;;;9.43;5.17;;;;;;;13.66;100.00;99223.67;2069714;86;21017;-81
2021/09/27 01:30:56;;;;;;;10.82;4.65;;;;;;;13.61;100.00;99217.33;2113018;84;21525;-81
2021/09/27 01:33:56;;;;;;;13.00;5.10;;;;;;;13.54;100.00;99213.33;2112935;84;21025;-81
2021/09/27 01:36:57;;;;;;;7.78;4.20;;;;;;;13.47;100.00;99211.13;2137052;83;20933;-81
2021/09/27 01:39:58;;;;;;;8.23;4.42;;;;;;;13.42;100.00;99215.30;2149071;83;21551;-81
2021/09/27 01:42:59;;;;;;;7.75;4.40;;;;;;;13.32;100.00;99211.66;2148917;83;21020;-81
2021/09/27 01:46:00;;;;;;;5.70;4.37;;;;;;;13.28;100.00;99213.84;2136508;83;21500;-81
2021/09/27 01:49:01;;;;;;;6.65;4.53;;;;;;;13.22;100.00;99211.94;2112897;84;21101;-81
2021/09/27 01:52:01;;;;;;;7.42;4.30;;;;;;;13.19;100.00;99216.27;2112833;84;21089;-81
2021/09/27 01:55:02;;;;;;;11.20;5.28;;;;;;;13.15;100.00;99214.14;2113352;83;20974;-81
2021/09/27 01:58:03;;;;;;;11.15;4.40;;;;;;;13.13;100.00;99220.09;2149012;83;20984;-81
2021/09/27 02:01:04;;;;;;;10.63;4.78;;;;;;;13.07;100.00;99213.27;2135659;83;21470;-81
2021/09/27 02:04:05;;;;;;;8.23;4.62;;;;;;;13.05;100.00;99214.42;2113038;84;21025;-81
2021/09/27 02:07:06;;;;;;;8.53;4.85;;;;;;;13.04;100.00;99214.93;2137374;83;20948;-80
2021/09/27 02:10:06;;;;;;;6.08;4.87;;;;;;;13.05;100.00;99213.11;2149037;83;22055;-81
2021/09/27 02:13:07;;;;;;;7.50;4.08;;;;;;;13.04;100.00;99212.80;2148970;83;21104;-81
2021/09/27 02:16:08;;;;;;;7.75;4.30;;;;;;;13.04;100.00;99209.67;2146792;83;21497;-81
2021/09/27 02:19:09;;;;;;;8.73;4.37;;;;;;;13.04;100.00;99208.86;2149052;83;21008;-81
2021/09/27 02:22:10;;;;;;;9.18;4.92;;;;;;;13.05;100.00;99211.80;2149143;83;21029;-81
2021/09/27 02:25:11;;;;;;;7.65;4.50;;;;;;;13.02;100.00;99204.29;2121550;83;21278;-81
2021/09/27 02:28:11;;;;;;;7.95;3.72;;;;;;;13.04;100.00;99206.23;2112821;84;21511;-81
2021/09/27 02:31:12;;;;;;;6.58;4.05;;;;;;;13.02;100.00;99200.34;2126240;83;20993;-81
2021/09/27 02:34:13;;;;;;;8.65;4.45;;;;;;;13.01;100.00;99200.84;2149195;83;21044;-82
2021/09/27 02:37:14;;;;;;;10.78;5.47;;;;;;;13.00;100.00;99211.55;2149202;83;21005;-81
2021/09/27 02:40:14;;;;;;;6.78;4.12;;;;;;;12.97;100.00;99202.19;2147567;83;20968;-81
2021/09/27 02:43:15;;;;;;;5.72;3.87;;;;;;;12.96;100.00;99203.19;2112845;84;21129;-82
2021/09/27 02:46:16;;;;;;;8.18;3.95;;;;;;;12.96;100.00;99199.25;2112814;84;21476;-82
2021/09/27 02:49:19;;;;;;;7.87;4.15;;;;;;;12.97;100.00;99198.75;2112965;84;21017;-81
2021/09/27 02:52:19;;;;;;;5.65;3.98;;;;;;;12.97;100.00;99194.81;2120740;83;21100;-81
2021/09/27 02:55:20;;;;;;;8.00;4.65;;;;;;;12.96;100.00;99195.31;2113113;83;20942;-80
2021/09/27 02:58:21;;;;;;;9.28;4.72;;;;;;;12.96;100.00;99191.87;2112960;84;21025;-83
2021/09/27 03:01:22;;;;;;;5.67;3.90;;;;;;;12.98;100.00;99184.11;2113709;83;20963;-85
2021/09/27 03:04:23;;;;;;;7.20;4.28;;;;;;;12.98;100.00;99184.11;2113103;83;21489;-85
2021/09/27 03:07:24;;;;;;;8.63;5.30;;;;;;;13.02;100.00;99187.20;2112998;84;21525;-84
2021/09/27 03:10:24;;;;;;;8.03;4.67;;;;;;;13.03;100.00;99184.89;2112851;84;20981;-85
2021/09/27 03:13:25;;;;;;;6.62;3.77;;;;;;;13.03;100.00;99188.33;2112795;84;21597;-87
2021/09/27 03:16:26;;;;;;;6.60;4.00;;;;;;;13.06;100.00;99189.77;2125928;83;20934;-83
2021/09/27 03:19:27;;;;;;;8.75;4.47;;;;;;;13.08;100.00;99186.48;2149163;83;21508;-84
2021/09/27 03:22:28;;;;;;;9.18;3.95;;;;;;;13.13;100.00;99189.35;2148881;83;21037;-84
2021/09/27 03:25:29;;;;;;;6.53;4.40;;;;;;;13.12;100.00;99179.03;2128619;83;21041;-85
2021/09/27 03:28:29;;;;;;;8.38;3.98;;;;;;;13.12;100.00;99179.03;2112576;84;21019;-83
2021/09/27 03:31:36;;;;;;;8.50;3.98;;;;;;;13.18;100.00;99188.81;2116721;84;21072;-85
2021/09/27 03:34:37;;;;;;;7.03;4.35;;;;;;;13.15;100.00;99189.98;2116527;84;21096;-85
2021/09/27 03:37:38;;;;;;;10.28;4.15;;;;;;;13.14;100.00;99192.80;2116726;84;21084;-85
2021/09/27 03:40:39;;;;;;;9.58;4.15;;;;;;;13.12;100.00;99189.05;2116696;84;21035;-86
2021/09/27 03:43:40;;;;;;;8.65;4.65;;;;;;;13.10;100.00;99185.79;2135177;83;21002;-85
2021/09/27 03:46:40;;;;;;;7.72;3.75;;;;;;;13.09;100.00;99178.41;2116023;84;21567;-85
2021/09/27 03:49:41;;;;;;;5.87;3.47;;;;;;;13.07;100.00;99173.84;2115899;84;21123;-84
2021/09/27 03:52:42;;;;;;;15.03;4.22;;;;;;;13.03;100.00;99169.93;2116633;84;21503;-85
2021/09/27 03:55:43;;;;;;;9.35;4.37;;;;;;;13.00;100.00;99172.13;2117198;84;21012;-85
2021/09/27 03:58:44;;;;;;;8.23;4.25;;;;;;;12.93;100.00;99164.14;2116960;84;21516;-84
2021/09/27 04:01:45;;;;;;;11.55;4.40;;;;;;;12.89;100.00;99175.19;2116953;84;21052;-85
2021/09/27 04:04:48;;;;;;;8.33;4.15;;;;;;;12.81;100.00;99164.30;2117509;84;20988;-84
2021/09/27 04:07:48;;;;;;;6.28;3.80;;;;;;;12.76;100.00;99170.09;2118070;84;21083;-85
2021/09/27 04:10:49;;;;;;;8.25;4.65;;;;;;;12.69;100.00;99163.11;2118440;84;21104;-85
2021/09/27 04:13:50;;;;;;;11.85;4.95;;;;;;;12.62;100.00;99167.45;2117335;84;21016;-87
2021/09/27 04:16:51;;;;;;;12.10;5.30;;;;;;;12.52;100.00;99156.72;2117052;84;21566;-86
2021/09/27 04:19:51;;;;;;;7.10;4.37;;;;;;;12.54;100.00;99160.52;2117050;84;21051;-86
2021/09/27 04:22:52;;;;;;;9.03;3.98;;;;;;;12.47;100.00;99161.72;2117175;84;21483;-87
2021/09/27 04:25:53;;;;;;;11.95;5.70;;;;;;;12.43;100.00;99163.56;2116933;84;21071;-86
2021/09/27 04:28:54;;;;;;;6.03;4.62;;;;;;;12.39;100.00;99160.48;2117096;84;21031;-86
2021/09/27 04:31:55;;;;;;;4.62;4.17;;;;;;;12.34;100.00;99168.08;2114177;84;21050;-86
2021/09/27 04:34:56;;;;;;;5.37;3.70;;;;;;;12.29;100.00;99161.26;2113040;84;21022;-85
2021/09/27 04:37:56;;;;;;;9.05;4.87;;;;;;;12.25;100.00;99161.28;2113067;84;20948;-84
2021/09/27 04:40:57;;;;;;;5.85;4.37;;;;;;;12.22;100.00;99160.33;2113140;84;21562;-87
2021/09/27 04:43:58;;;;;;;9.90;4.47;;;;;;;12.20;100.00;99160.52;2112931;84;21312;-88
2021/09/27 04:46:59;;;;;;;5.33;4.17;;;;;;;12.20;100.00;99159.20;2113008;84;20980;-82
2021/09/27 04:50:00;;;;;;;8.35;4.50;;;;;;;12.24;100.00;99163.59;2113051;84;21531;-86
2021/09/27 04:53:00;;;;;;;6.30;3.92;;;;;;;12.26;100.00;99164.75;2113013;84;20964;-85
2021/09/27 04:56:01;;;;;;;6.95;4.40;;;;;;;12.27;100.00;99164.56;2112894;84;21010;-85
2021/09/27 04:59:02;;;;;;;8.10;3.98;;;;;;;12.32;100.00;99166.63;2112798;84;21460;-85
2021/09/27 05:02:03;;;;;;;6.50;4.10;;;;;;;12.35;100.00;99164.48;2113064;84;21051;-86
2021/09/27 05:05:04;;;;;;;10.38;5.50;;;;;;;12.39;100.00;99164.93;2112894;84;21514;-86
2021/09/27 05:08:04;;;;;;;8.13;3.83;;;;;;;12.44;100.00;99155.53;2113567;84;20977;-85
2021/09/27 05:11:05;;;;;;;7.10;4.40;;;;;;;12.48;100.00;99153.34;2113834;84;21018;-85
2021/09/27 05:14:06;;;;;;;7.10;4.25;;;;;;;12.55;100.00;99148.19;2112900;84;20996;-84
2021/09/27 05:17:07;;;;;;;7.37;4.20;;;;;;;12.64;100.00;99149.73;2112958;84;21652;-85
2021/09/27 05:20:08;;;;;;;7.33;4.00;;;;;;;12.70;100.00;99152.92;2112744;84;21000;-85
2021/09/27 05:23:09;;;;;;;10.95;4.60;;;;;;;12.76;100.00;99153.02;2112857;84;21072;-85
2021/09/27 05:26:09;;;;;;;7.03;4.35;;;;;;;12.88;100.00;99157.80;2112875;84;21067;-85
2021/09/27 05:29:10;;;;;;;10.25;5.40;;;;;;;12.97;100.00;99156.70;2112877;84;21036;-85
2021/09/27 05:32:11;;;;;;;10.10;4.75;;;;;;;13.07;100.00;99154.59;2112625;84;21045;-85
2021/09/27 05:35:12;;;;;;;6.87;4.92;;;;;;;13.13;100.00;99147.79;2112739;84;20992;-85
2021/09/27 05:38:13;;;;;;;9.15;4.80;;;;;;;13.25;100.00;99155.03;2112852;84;21051;-85
2021/09/27 05:41:13;;;;;;;7.33;4.97;;;;;;;13.34;100.00;99151.78;2112850;84;21015;-85
2021/09/27 05:44:14;;;;;;;8.35;4.85;;;;;;;13.44;100.00;99159.37;2112662;84;20980;-85
2021/09/27 05:47:15;;;;;;;8.45;4.97;;;;;;;13.54;100.00;99156.77;2112982;84;21027;-84
2021/09/27 05:50:16;;;;;;;9.05;4.67;;;;;;;13.65;100.00;99155.45;2112945;84;20952;-85
2021/09/27 05:53:17;;;;;;;7.80;4.28;;;;;;;13.76;100.00;99163.33;2112720;84;21042;-85
2021/09/27 05:56:18;;;;;;;8.30;4.90;;;;;;;13.87;100.00;99162.81;2112841;84;21004;-85
2021/09/27 05:59:19;;;;;;;9.58;4.42;;;;;;;13.96;100.00;99164.31;2112825;84;21023;-86
2021/09/27 06:02:19;;;;;;;7.12;4.62;;;;;;;14.09;100.00;99164.94;2112799;84;21067;-85
2021/09/27 06:05:20;;;;;;;9.58;5.25;;;;;;;14.20;100.00;99156.51;2112895;84;21008;-85
2021/09/27 06:08:21;;;;;;;8.58;4.65;;;;;;;14.31;100.00;99156.47;2112907;84;21068;-85
2021/09/27 06:11:22;;;;;;;8.73;4.95;;;;;;;14.43;100.00;99164.14;2112649;84;21502;-85
2021/09/27 06:14:22;;;;;;;13.32;5.78;;;;;;;14.56;100.00;99162.95;2112688;84;21112;-85
2021/09/27 06:17:24;;;;;;;8.45;5.33;;;;;;;14.67;100.00;99162.91;2113107;84;21027;-86
2021/09/27 06:20:25;;;;;;;7.42;4.85;;;;;;;14.75;100.00;99158.80;2112826;84;21101;-85
2021/09/27 06:23:25;;;;;;;9.33;5.28;;;;;;;14.84;100.00;99164.21;2112808;84;21059;-85
2021/09/27 06:26:26;;;;;;;9.18;5.05;;;;;;;14.92;100.00;99171.95;2112816;84;21447;-85
2021/09/27 06:29:27;;;;;;;10.18;4.75;;;;;;;14.99;100.00;99168.82;2112854;84;21003;-85
2021/09/27 06:32:28;;;;;;;9.33;4.83;;;;;;;15.07;100.00;99164.70;2112306;84;21120;-85
2021/09/27 06:35:29;;;;;;;9.80;4.95;;;;;;;15.14;100.00;99167.88;2113062;84;21033;-85
2021/09/27 06:38:30;;;;;;;6.85;4.97;;;;;;;15.18;100.00;99169.94;2112825;84;20999;-85
2021/09/27 06:41:31;;;;;;;12.82;6.08;;;;;;;15.21;100.00;99173.98;2112826;84;21000;-85
2021/09/27 06:44:31;;;;;;;8.33;4.67;;;;;;;15.24;100.00;99172.27;2112853;84;21026;-85
2021/09/27 06:47:32;;;;;;;7.03;4.92;;;;;;;15.30;100.00;99168.34;2112939;84;21516;-85
2021/09/27 06:50:33;;;;;;;7.97;4.83;;;;;;;15.36;100.00;99178.11;2112926;84;21015;-85
2021/09/27 06:53:34;;;;;;;7.70;4.85;;;;;;;15.45;100.00;99180.53;2112642;84;21051;-85
2021/09/27 06:56:35;;;;;;;7.08;4.95;;;;;;;15.49;100.00;99177.31;2112775;84;20966;-85
2021/09/27 06:59:36;;;;;;;7.67;4.78;;;;;;;15.57;100.00;99182.41;2112752;84;21007;-86
2021/09/27 07:02:37;;;;;;;6.92;5.53;;;;;;;15.64;100.00;99180.63;2112818;84;20961;-86
2021/09/27 07:05:37;;;;;;;9.08;4.67;;;;;;;15.69;100.00;99177.37;2112904;84;21511;-85
2021/09/27 07:08:38;;;;;;;12.25;6.72;;;;;;;15.75;100.00;99187.65;2112698;84;20999;-86
2021/09/27 07:11:39;;;;;;;13.58;6.70;;;;;;;15.71;100.00;99181.12;2112660;84;21534;-86
2021/09/27 07:14:40;;;;;;;11.83;5.62;;;;;;;15.65;100.00;99182.77;2112742;84;21047;-86
2021/09/27 07:17:41;;;;;;;7.20;5.30;;;;;;;15.67;100.00;99189.16;2112775;84;20972;-86
2021/09/27 07:20:42;;;;;;;9.53;5.42;;;;;;;15.75;100.00;99186.33;2112794;84;21020;-85
2021/09/27 07:23:43;;;;;;;11.00;5.85;;;;;;;15.82;100.00;99188.48;2112935;84;21048;-86
2021/09/27 07:26:43;;;;;;;9.05;4.87;;;;;;;15.92;100.00;99188.38;2113111;84;21046;-86
2021/09/27 07:29:44;;;;;;;8.25;5.42;;;;;;;16.06;100.00;99186.54;2112970;84;21004;-86
2021/09/27 07:32:45;;;;;;;8.60;5.75;;;;;;;16.23;100.00;99186.95;2112845;83;21524;-86
2021/09/27 07:35:46;;;;;;;9.13;6.08;;;;;;;16.39;100.00;99185.72;2112960;84;20937;-86
2021/09/27 07:38:47;;;;;;;10.28;5.67;;;;;;;16.44;100.00;99184.58;2113433;84;21099;-86
2021/09/27 07:41:48;;;;;;;10.72;6.03;;;;;;;16.55;100.00;99185.30;2112824;84;20948;-86
2021/09/27 07:44:49;;;;;;;7.00;5.08;;;;;;;16.79;100.00;99182.50;2112969;84;21063;-85
2021/09/27 07:47:49;;;;;;;8.73;5.30;;;;;;;17.00;100.00;99179.57;2112854;84;20984;-85
2021/09/27 07:50:50;;;;;;;12.88;6.15;;;;;;;17.23;100.00;99181.72;2113004;84;20956;-85
2021/09/27 07:53:51;;;;;;;9.25;6.03;;;;;;;17.35;100.00;99176.56;2112930;84;21475;-86
2021/09/27 07:56:52;;;;;;;7.47;5.55;;;;;;;17.42;100.00;99176.03;2113359;84;21452;-85
2021/09/27 07:59:53;;;;;;;8.43;6.30;;;;;;;17.50;100.00;99177.62;2113628;84;21010;-86
2021/09/27 08:02:53;;;;;;;8.15;5.50;;;;;;;17.54;100.00;99178.80;2112958;84;21084;-85
2021/09/27 08:05:54;;;;;;;11.40;6.05;;;;;;;17.54;100.00;99176.97;2113174;84;21499;-86
2021/09/27 08:08:55;;;;;;;11.88;7.28;;;;;;;17.51;100.00;99178.72;2112877;84;21099;-86
2021/09/27 08:11:56;;;;;;;12.10;5.83;;;;;;;17.54;100.00;99171.67;2112926;84;20984;-85
2021/09/27 08:14:57;;;;;;;10.48;5.92;;;;;;;17.63;100.00;99178.84;2112806;84;21039;-85
2021/09/27 08:17:58;;;;;;;6.53;5.67;;;;;;;17.65;100.00;99176.81;2113150;84;21056;-86
2021/09/27 08:20:59;;;;;;;6.15;5.53;;;;;;;17.75;100.00;99184.32;2112849;84;21522;-86
2021/09/27 08:24:00;;;;;;;10.13;7.50;;;;;;;17.83;100.00;99181.38;2112769;84;21491;-86
2021/09/27 08:27:01;;;;;;;11.00;6.35;;;;;;;17.86;100.00;99173.03;2112878;84;20996;-86
2021/09/27 08:30:01;;;;;;;7.50;6.05;;;;;;;18.04;100.00;99173.09;2112929;84;21047;-85
2021/09/27 08:33:03;;;;;;;10.13;5.67;;;;;;;18.13;100.00;99155.08;2115595;84;21027;-86
2021/09/27 08:36:05;;;;;;;11.63;6.15;;;;;;;18.27;100.00;99171.14;2116703;84;21032;-86
2021/09/27 08:39:05;;;;;;;9.43;6.80;;;;;;;18.37;100.00;99162.17;2117002;84;21514;-86
2021/09/27 08:42:06;;;;;;;10.00;6.72;;;;;;;18.42;100.00;99178.25;2117008;84;21039;-86
2021/09/27 08:45:07;;;;;;;7.40;6.25;;;;;;;18.62;100.00;99164.78;2117099;84;21159;-86
2021/09/27 08:48:08;;;;;;;8.05;6.60;;;;;;;18.62;100.00;99164.78;2117160;84;20964;-86
2021/09/27 08:51:09;;;;;;;7.17;6.47;;;;;;;18.62;100.00;99166.11;2116873;84;21304;-85
2021/09/27 08:54:10;;;;;;;8.30;6.37;;;;;;;18.58;100.00;99160.96;2116898;84;21023;-85
2021/09/27 08:57:11;;;;;;;9.20;7.03;;;;;;;18.53;100.00;99159.98;2117032;84;20968;-85
2021/09/27 09:00:11;;;;;;;10.80;6.67;;;;;;;18.50;100.00;99153.81;2117067;84;21003;-85
2021/09/27 09:03:12;;;;;;;8.75;5.92;;;;;;;18.54;100.00;99154.98;2117600;84;21020;-85
2021/09/27 09:06:13;;;;;;;9.18;6.85;;;;;;;18.57;100.00;99152.72;2117052;84;21059;-86
2021/09/27 09:09:14;;;;;;;10.68;5.90;;;;;;;18.59;100.00;99145.34;2116749;84;21478;-85
2021/09/27 09:12:14;;;;;;;7.62;5.97;;;;;;;18.66;100.00;99154.08;2116745;84;20995;-86
2021/09/27 09:15:15;;;;;;;9.28;6.33;;;;;;;18.75;100.00;99150.61;2116943;84;21076;-87
2021/09/27 09:18:16;;;;;;;9.35;6.25;;;;;;;18.78;100.00;99152.00;2116830;84;21424;-87
2021/09/27 09:21:19;;;;;;;7.15;6.10;;;;;;;18.85;100.00;99152.23;2116951;84;21043;-87
2021/09/27 09:24:19;;;;;;;5.83;5.03;;;;;;;18.89;100.00;99146.75;2116774;84;21127;-87
2021/09/27 09:27:20;;;;;;;6.97;5.75;;;;;;;18.96;100.00;99144.03;2116924;84;21503;-87
2021/09/27 09:30:21;;;;;;;13.85;6.50;;;;;;;19.01;100.00;99144.16;2116901;84;20999;-87
2021/09/27 09:33:22;;;;;;;7.30;4.85;;;;;;;19.07;100.00;99138.48;2114037;84;21088;-87
2021/09/27 09:36:23;;;;;;;7.70;5.85;;;;;;;19.17;100.00;99136.91;2112858;84;21042;-87
2021/09/27 09:39:24;;;;;;;6.08;5.42;;;;;;;19.24;100.00;99134.98;2112731;84;21015;-89
2021/09/27 09:42:25;;;;;;;9.00;5.65;;;;;;;19.27;100.00;99129.73;2112953;84;21592;-85
2021/09/27 09:45:26;;;;;;;6.85;5.25;;;;;;;19.36;100.00;99119.60;2112817;84;21007;-85
2021/09/27 09:48:26;;;;;;;8.90;6.05;;;;;;;19.38;100.00;99126.30;2112865;84;21003;-86
2021/09/27 09:51:27;;;;;;;6.97;6.00;;;;;;;19.44;100.00;99120.09;2112695;84;21510;-87
2021/09/27 09:54:28;;;;;;;6.45;5.20;;;;;;;19.51;100.00;99125.31;2112660;84;21063;-86
2021/09/27 09:57:29;;;;;;;8.83;5.83;;;;;;;19.50;100.00;99119.19;2112807;84;21343;-86
2021/09/27 10:00:30;;;;;;;7.45;6.08;;;;;;;19.56;100.00;99129.44;2112808;84;21087;-86
2021/09/27 10:03:31;;;;;;;7.85;6.00;;;;;;;19.64;98.36;99119.00;2112717;84;21068;-86
2021/09/27 10:06:32;;;;;;;6.25;5.45;;;;;;;19.70;98.84;99116.25;2112810;84;21502;-85
2021/09/27 10:09:33;;;;;;;7.80;6.10;;;;;;;19.80;99.97;99111.19;2112924;84;21059;-86
2021/09/27 10:12:34;;;;;;;7.67;5.53;;;;;;;19.84;99.13;99107.53;2112738;84;21016;-85
2021/09/27 10:15:35;;;;;;;7.03;5.12;;;;;;;19.87;98.90;99105.25;2112912;84;21036;-86
2021/09/27 10:18:36;;;;;;;6.15;5.33;;;;;;;19.91;98.41;99106.11;2113808;84;20996;-86
2021/09/27 10:21:36;;;;;;;6.60;5.92;;;;;;;19.96;97.00;99104.91;2115838;84;21041;-86
2021/09/27 10:24:38;;;;;;;6.10;5.50;;;;;;;20.01;95.55;99110.33;2113729;84;21039;-87
2021/09/27 10:27:40;;;;;;;8.40;5.85;;;;;;;20.02;96.41;99104.77;2113374;84;21095;-86
2021/09/27 10:30:41;;;;;;;5.83;5.37;;;;;;;20.07;97.42;99116.86;2113168;84;21059;-87
2021/09/27 10:33:42;;;;;;;12.03;6.25;;;;;;;20.18;95.08;99120.55;2112707;84;21084;-87
2021/09/27 10:36:43;;;;;;;7.10;6.05;;;;;;;20.26;92.71;99110.09;2112817;84;20991;-87
2021/09/27 10:39:45;;;;;;;6.70;5.95;;;;;;;20.33;92.05;99106.80;2112789;84;20988;-86
2021/09/27 10:42:47;;;;;;;8.55;6.15;;;;;;;20.38;90.37;99106.89;2112789;84;21093;-86
2021/09/27 10:45:48;;;;;;;8.95;5.42;;;;;;;20.39;92.60;99089.40;2112932;84;21485;-87
2021/09/27 10:48:48;;;;;;;8.00;6.15;;;;;;;20.39;92.60;99089.40;2113073;84;21008;-87
2021/09/27 10:51:49;;;;;;;9.10;5.53;;;;;;;20.53;92.91;99101.13;2113049;84;21039;-87
2021/09/27 10:54:50;;;;;;;7.35;5.72;;;;;;;20.62;89.69;99098.39;2112676;84;20956;-86
2021/09/27 10:57:51;;;;;;;6.55;5.95;;;;;;;20.67;87.63;99101.17;2112724;84;20999;-87
2021/09/27 11:00:52;;;;;;;6.53;5.92;;;;;;;20.72;89.45;99093.27;2112899;84;21534;-86
2021/09/27 11:03:53;;;;;;;6.30;5.67;;;;;;;20.72;85.82;99100.73;2112952;84;21060;-87
2021/09/27 11:06:55;;;;;;;7.53;6.25;;;;;;;20.76;85.13;99097.09;2112978;84;20996;-84
2021/09/27 11:09:55;;;;;;;7.30;6.30;;;;;;;20.85;85.71;99102.85;2113058;84;21579;-87
2021/09/27 11:12:56;;;;;;;6.75;6.10;;;;;;;21.01;86.65;99101.55;2113067;84;21020;-86
2021/09/27 11:15:58;;;;;;;6.33;5.72;;;;;;;21.21;84.87;99109.63;2112847;84;21010;-87
2021/09/27 11:18:59;;;;;;;8.03;5.75;;;;;;;21.28;83.82;99097.81;2112958;84;21646;-86
2021/09/27 11:22:00;;;;;;;7.10;5.10;;;;;;;21.39;81.37;99108.12;2112932;84;21035;-87
2021/09/27 11:25:00;;;;;;;5.53;5.03;;;;;;;21.37;79.00;99096.90;2113021;84;20949;-87
2021/09/27 11:28:01;;;;;;;5.72;5.22;;;;;;;21.49;79.39;99112.84;2113078;84;21023;-86
2021/09/27 11:31:02;;;;;;;8.45;5.83;;;;;;;21.51;78.47;99100.08;2112947;84;20972;-86
2021/09/27 11:34:03;;;;;;;7.80;5.30;;;;;;;21.49;79.00;99095.52;2112825;83;21028;-86
2021/09/27 11:37:04;;;;;;;5.90;5.25;;;;;;;21.45;77.80;99095.70;2112799;84;21016;-86
2021/09/27 11:40:05;;;;;;;6.03;5.40;;;;;;;21.40;78.84;99099.63;2112932;84;22201;-87
2021/09/27 11:43:05;;;;;;;5.97;5.33;;;;;;;21.29;79.69;99088.77;2112611;84;21016;-84
2021/09/27 11:46:08;;;;;;;8.00;6.12;;;;;;;21.19;79.64;99095.22;2112963;84;20968;-87
2021/09/27 11:49:09;;;;;;;8.88;6.08;;;;;;;21.18;80.23;99086.95;2112793;84;21059;-86
2021/09/27 11:52:10;;;;;;;8.53;6.17;;;;;;;21.17;79.97;99088.00;2112863;84;20999;-87
2021/09/27 11:55:10;;;;;;;9.75;5.28;;;;;;;21.11;79.38;99090.28;2112937;84;20961;-86
2021/09/27 11:58:11;;;;;;;7.62;5.22;;;;;;;21.07;78.45;99088.34;2112958;84;21498;-87
2021/09/27 12:01:12;;;;;;;6.53;5.80;;;;;;;21.05;78.55;99091.78;2112827;84;21004;-87
2021/09/27 12:04:13;;;;;;;6.67;5.33;;;;;;;21.01;78.37;99091.43;2112903;84;20983;-87
2021/09/27 12:07:14;;;;;;;8.20;6.00;;;;;;;21.04;78.55;99079.52;2112886;84;21019;-86
2021/09/27 12:10:15;;;;;;;5.87;5.20;;;;;;;21.04;78.62;99077.66;2112786;84;20977;-87
2021/09/27 12:13:15;;;;;;;6.17;5.28;;;;;;;20.98;77.99;99069.29;2112891;84;21138;-87
2021/09/27 12:16:16;;;;;;;5.97;4.78;;;;;;;20.91;78.37;99076.08;2112798;84;20957;-87
2021/09/27 12:19:17;;;;;;;7.58;5.33;;;;;;;20.90;79.20;99074.98;2112793;84;21000;-85
2021/09/27 12:22:18;;;;;;;7.22;5.80;;;;;;;20.91;79.92;99070.75;2112746;84;20952;-86
2021/09/27 12:25:19;;;;;;;9.95;5.90;;;;;;;20.90;79.00;99076.32;2112884;84;21036;-86
2021/09/27 12:28:19;;;;;;;7.83;5.83;;;;;;;20.84;79.26;99077.26;2112928;84;21051;-87
2021/09/27 12:31:21;;;;;;;5.87;5.12;;;;;;;20.89;79.80;99077.37;2112958;84;20952;-87
2021/09/27 12:34:21;;;;;;;5.17;4.55;;;;;;;20.99;80.23;99073.03;2109485;83;21587;-86
2021/09/27 12:37:22;;;;;;;5.75;4.97;;;;;;;21.09;80.23;99070.27;2108642;84;21008;-86
2021/09/27 12:40:23;;;;;;;8.65;5.35;;;;;;;21.09;80.51;99075.60;2108474;84;21052;-87
2021/09/27 12:43:24;;;;;;;7.55;5.50;;;;;;;21.01;79.96;99084.25;2108198;84;21044;-87
2021/09/27 12:46:25;;;;;;;9.35;6.00;;;;;;;20.86;80.23;99077.33;2108280;84;21052;-87
2021/09/27 12:49:26;;;;;;;7.35;5.78;;;;;;;20.73;80.35;99075.73;2109242;84;21050;-86
2021/09/27 12:52:26;;;;;;;6.22;5.40;;;;;;;20.66;81.07;99071.59;2108454;84;21039;-86
2021/09/27 12:55:27;;;;;;;6.75;5.75;;;;;;;20.57;81.22;99071.15;2108171;84;21579;-86
2021/09/27 12:58:28;;;;;;;5.97;5.37;;;;;;;20.50;81.02;99063.05;2108970;84;21048;-86
2021/09/27 13:01:29;;;;;;;7.10;5.78;;;;;;;20.49;82.05;99068.88;2109194;84;21060;-86
2021/09/27 13:04:34;;;;;;;10.75;6.58;;;;;;;20.45;82.18;99063.20;2109081;84;21039;-86
2021/09/27 13:07:32;;;;;;;6.95;5.15;;;;;;;20.36;81.77;99061.92;2107844;84;21089;-87
2021/09/27 13:10:33;;;;;;;7.17;5.45;;;;;;;20.37;82.55;99073.37;2108798;84;21072;-85
2021/09/27 13:13:34;;;;;;;6.53;5.87;;;;;;;20.35;82.03;99061.64;2109461;84;21003;-87
2021/09/27 13:16:35;;;;;;;8.68;5.80;;;;;;;20.37;83.01;99062.73;2108948;84;21003;-86
2021/09/27 13:19:36;;;;;;;7.87;5.05;;;;;;;20.41;83.13;99051.41;2108505;84;21543;-87
2021/09/27 13:22:38;;;;;;;6.22;5.62;;;;;;;20.47;82.60;99055.52;2108317;84;20996;-86
2021/09/27 13:25:39;;;;;;;7.28;4.78;;;;;;;20.53;82.91;99066.03;2108073;84;21630;-86
2021/09/27 13:28:40;;;;;;;8.48;6.65;;;;;;;20.58;82.22;99069.33;2108181;84;20996;-86
2021/09/27 13:31:40;;;;;;;8.20;5.53;;;;;;;20.52;83.05;99056.44;2108342;84;21616;-87
2021/09/27 13:34:43;;;;;;;8.35;6.33;;;;;;;20.55;82.87;99061.80;2111745;83;21111;-87
2021/09/27 13:37:44;;;;;;;8.20;6.05;;;;;;;20.51;84.29;99067.31;2113561;84;21072;-86
2021/09/27 13:40:46;;;;;;;6.40;5.70;;;;;;;20.42;83.85;99050.88;2113466;84;21059;-85
2021/09/27 13:43:47;;;;;;;6.45;5.75;;;;;;;20.35;83.84;99063.49;2112464;84;21135;-86
2021/09/27 13:46:48;;;;;;;6.60;5.90;;;;;;;20.29;83.88;99053.27;2112871;84;21352;-85
2021/09/27 13:49:49;;;;;;;6.55;5.78;;;;;;;20.22;83.62;99054.45;2112926;84;21119;-85
2021/09/27 13:52:50;;;;;;;6.47;5.60;;;;;;;20.20;83.65;99057.32;2113023;84;20988;-85
2021/09/27 13:55:50;;;;;;;6.97;5.58;;;;;;;20.18;84.18;99047.45;2113580;84;21483;-87
2021/09/27 13:58:51;;;;;;;9.63;6.15;;;;;;;20.17;83.58;99055.95;2112908;84;21031;-86
2021/09/27 14:01:52;;;;;;;9.28;5.90;;;;;;;20.12;83.53;99052.39;2112584;84;21035;-84